Overview Statistics Trail Chart Weather Telemetry Raw packets
 

This is the latest recevied weather packets stored in our database for station/object KE6JJJ-1. If no packets are shown the sender has not sent any weather packets the latest 10 day(s).

<< 15 16 17 18 19 >>
Time Temp. Humidity Pressure Rain* Wind** Luminosity Snow
1787877303 18.33° C 78% 1014.4 hPa 0 mm - 185 W/m² -
1787875688 18.33° C 79% 1014.7 hPa 0 mm - 242 W/m² -
1787875503 18.33° C 79% 1014.7 hPa 0 mm - 242 W/m² -
1787873703 18.89° C 76% 1014.4 hPa 0 mm - 290 W/m² -
1787871903 20.56° C 73% 1014 hPa 0 mm - 366 W/m² -
1787870103 21.67° C 71% 1014.2 hPa 0 mm - 506 W/m² -
1787868303 22.22° C 69% 1014.6 hPa 0 mm - 555 W/m² -
1787866503 23.33° C 67% 1014.5 hPa 0 mm - 780 W/m² -
1787864703 21.67° C 71% 1014.7 hPa 0 mm - 573 W/m² -
1787862903 21.11° C 72% 1014.9 hPa 0 mm - 387 W/m² -
1787861104 22.22° C 70% 1014.9 hPa 0 mm - 735 W/m² -
1787859303 21.11° C 73% 1015 hPa 0 mm - 418 W/m² -
1787857503 20° C 76% 1015.3 hPa 0 mm - 394 W/m² -
1787855703 18.89° C 79% 1015.3 hPa 0 mm - 893 W/m² -
1787853903 18.89° C 77% 1015.2 hPa 0 mm - 436 W/m² -
1787852103 18.89° C 79% 1014.9 hPa 0 mm - 621 W/m² -
1787850303 18.33° C 82% 1014.3 hPa 0 mm - 700 W/m² -
1787848503 17.22° C 88% 1014.2 hPa 0 mm - 592 W/m² -
1787846703 16.11° C 90% 1014.3 hPa 0 mm - 248 W/m² -
1787844911 15.56° C 91% 1014.3 hPa 0 mm - 323 W/m² -
1787843103 15° C 91% 1014.3 hPa 0 mm - 223 W/m² -
1787841303 14.44° C 91% 1014 hPa 0 mm - 104 W/m² -
1787839503 14.44° C 91% 1013.9 hPa 0 mm - 26 W/m² -
1787837703 14.44° C 91% 1013.3 hPa 0 mm - 0 W/m² -
1787835903 14.44° C 90% 1013.4 hPa 0 mm - 0 W/m² -

* Rain latest hour (hover to see other rain measurements)
** Current wind speed in m/s (hover to see current wind gust speed)